
<gpx xmlns="http://www.topografix.com/GPX/1/1" xmlns:gpxx="http://www.garmin.com/xmlschemas/GpxExtensions/v3" xmlns:xsi="http://www.w3.org/2001/XMLSchema-instance" version="1.1" creator="Adze - http://kobotsw.com/apps/adze" xsi:schemaLocation="http://www.topografix.com/GPX/1/1 http://www.topografix.com/GPX/1/1/gpx.xsd http://www.garmin.com/xmlschemas/GpxExtensions/v3 http://www.garmin.com/xmlschemas/GpxExtensionsv3.xsd">
    <metadata>
        <name>Untitled Document</name>
        <link href="http://www.garmin.com"></link>
        <time>2018-02-26T07:44:38.093Z</time>
    </metadata>
    <wpt lon="100.974514" lat="12.905974">
        <ele>59.000000</ele>
        <name>Horseshoe Point</name>
        <cmt>23-MAR-13 12:54:25</cmt>
        <desc>23-MAR-13 12:54:25</desc>
        <sym>Lodging</sym>
        <extensions>
            <gpxx:WaypointExtension xmlns:gpxx="http://www.garmin.com/xmlschemas/GpxExtensions/v3">
                <gpxx:DisplayMode>SymbolOnly</gpxx:DisplayMode>
            </gpxx:WaypointExtension>
        </extensions>
    </wpt>
    <wpt lon="100.982170" lat="12.952145">
        <ele>58.000000</ele>
        <name>Water Sunday</name>
        <cmt>24-MAR-13 11:11:17</cmt>
        <desc>24-MAR-13 11:11:17</desc>
        <sym>Drinking Water</sym>
        <extensions>
            <gpxx:WaypointExtension xmlns:gpxx="http://www.garmin.com/xmlschemas/GpxExtensions/v3">
                <gpxx:DisplayMode>SymbolOnly</gpxx:DisplayMode>
            </gpxx:WaypointExtension>
        </extensions>
    </wpt>
    <trk>
        <name>Sunday</name>
        <extensions>
            <gpxx:TrackExtension xmlns:gpxx="http://www.garmin.com/xmlschemas/GpxExtensions/v3">
                <gpxx:DisplayColor>Green</gpxx:DisplayColor>
            </gpxx:TrackExtension>
        </extensions>
        <trkseg>
            <trkpt lon="100.974427" lat="12.906040">
                <ele>111.650269</ele>
                <time>2013-03-24T03:02:30Z</time>
            </trkpt>
            <trkpt lon="100.974005" lat="12.904712">
                <ele>61.661743</ele>
                <time>2013-03-24T03:03:15Z</time>
            </trkpt>
            <trkpt lon="100.973839" lat="12.904592">
                <ele>61.661743</ele>
                <time>2013-03-24T03:03:20Z</time>
            </trkpt>
            <trkpt lon="100.972994" lat="12.904556">
                <ele>62.622925</ele>
                <time>2013-03-24T03:03:39Z</time>
            </trkpt>
            <trkpt lon="100.972889" lat="12.904697">
                <ele>63.584351</ele>
                <time>2013-03-24T03:03:44Z</time>
            </trkpt>
            <trkpt lon="100.972707" lat="12.905700">
                <ele>63.584351</ele>
                <time>2013-03-24T03:04:09Z</time>
            </trkpt>
            <trkpt lon="100.972128" lat="12.906502">
                <ele>65.026367</ele>
                <time>2013-03-24T03:04:33Z</time>
            </trkpt>
            <trkpt lon="100.971960" lat="12.906996">
                <ele>64.065063</ele>
                <time>2013-03-24T03:04:45Z</time>
            </trkpt>
            <trkpt lon="100.972123" lat="12.907362">
                <ele>64.065063</ele>
                <time>2013-03-24T03:04:54Z</time>
            </trkpt>
            <trkpt lon="100.972871" lat="12.909822">
                <ele>53.490479</ele>
                <time>2013-03-24T03:05:56Z</time>
            </trkpt>
            <trkpt lon="100.972403" lat="12.910188">
                <ele>53.009766</ele>
                <time>2013-03-24T03:06:09Z</time>
            </trkpt>
            <trkpt lon="100.971620" lat="12.911062">
                <ele>51.567871</ele>
                <time>2013-03-24T03:06:29Z</time>
            </trkpt>
            <trkpt lon="100.971250" lat="12.911808">
                <ele>51.087158</ele>
                <time>2013-03-24T03:06:42Z</time>
            </trkpt>
            <trkpt lon="100.970173" lat="12.912413">
                <ele>50.606567</ele>
                <time>2013-03-24T03:07:04Z</time>
            </trkpt>
            <trkpt lon="100.969106" lat="12.912358">
                <ele>50.606567</ele>
                <time>2013-03-24T03:07:23Z</time>
            </trkpt>
            <trkpt lon="100.967334" lat="12.912609">
                <ele>51.087158</ele>
                <time>2013-03-24T03:07:57Z</time>
            </trkpt>
            <trkpt lon="100.966058" lat="12.912636">
                <ele>50.125977</ele>
                <time>2013-03-24T03:08:19Z</time>
            </trkpt>
            <trkpt lon="100.963907" lat="12.913256">
                <ele>49.645264</ele>
                <time>2013-03-24T03:08:56Z</time>
            </trkpt>
            <trkpt lon="100.963344" lat="12.913554">
                <ele>49.645264</ele>
                <time>2013-03-24T03:09:08Z</time>
            </trkpt>
            <trkpt lon="100.962977" lat="12.913214">
                <ele>46.761231</ele>
                <time>2013-03-24T03:13:26Z</time>
            </trkpt>
            <trkpt lon="100.961235" lat="12.913898">
                <ele>45.799927</ele>
                <time>2013-03-24T03:14:10Z</time>
            </trkpt>
            <trkpt lon="100.959941" lat="12.913708">
                <ele>43.877319</ele>
                <time>2013-03-24T03:14:38Z</time>
            </trkpt>
            <trkpt lon="100.959223" lat="12.913798">
                <ele>43.877319</ele>
                <time>2013-03-24T03:14:54Z</time>
            </trkpt>
            <trkpt lon="100.958864" lat="12.914046">
                <ele>45.319214</ele>
                <time>2013-03-24T03:15:09Z</time>
            </trkpt>
            <trkpt lon="100.959422" lat="12.914957">
                <ele>47.722534</ele>
                <time>2013-03-24T03:16:36Z</time>
            </trkpt>
            <trkpt lon="100.959121" lat="12.915282">
                <ele>55.893799</ele>
                <time>2013-03-24T03:17:51Z</time>
            </trkpt>
            <trkpt lon="100.958902" lat="12.915342">
                <ele>54.451782</ele>
                <time>2013-03-24T03:18:24Z</time>
            </trkpt>
            <trkpt lon="100.959137" lat="12.916113">
                <ele>64.065063</ele>
                <time>2013-03-24T03:19:36Z</time>
            </trkpt>
            <trkpt lon="100.959441" lat="12.916229">
                <ele>59.739136</ele>
                <time>2013-03-24T03:20:01Z</time>
            </trkpt>
            <trkpt lon="100.959328" lat="12.916444">
                <ele>60.219727</ele>
                <time>2013-03-24T03:20:16Z</time>
            </trkpt>
            <trkpt lon="100.959515" lat="12.917061">
                <ele>57.335815</ele>
                <time>2013-03-24T03:20:46Z</time>
            </trkpt>
            <trkpt lon="100.957966" lat="12.917518">
                <ele>53.971191</ele>
                <time>2013-03-24T03:21:31Z</time>
            </trkpt>
            <trkpt lon="100.957579" lat="12.917876">
                <ele>53.490479</ele>
                <time>2013-03-24T03:21:43Z</time>
            </trkpt>
            <trkpt lon="100.956073" lat="12.918307">
                <ele>51.567871</ele>
                <time>2013-03-24T03:22:18Z</time>
            </trkpt>
            <trkpt lon="100.956551" lat="12.921985">
                <ele>44.838623</ele>
                <time>2013-03-24T03:23:53Z</time>
            </trkpt>
            <trkpt lon="100.956400" lat="12.922179">
                <ele>43.877319</ele>
                <time>2013-03-24T03:24:05Z</time>
            </trkpt>
            <trkpt lon="100.955984" lat="12.925226">
                <ele>45.319214</ele>
                <time>2013-03-24T03:25:18Z</time>
            </trkpt>
            <trkpt lon="100.956275" lat="12.926969">
                <ele>40.993408</ele>
                <time>2013-03-24T03:26:40Z</time>
            </trkpt>
            <trkpt lon="100.956835" lat="12.928882">
                <ele>37.148071</ele>
                <time>2013-03-24T03:27:27Z</time>
            </trkpt>
            <trkpt lon="100.956875" lat="12.929091">
                <ele>36.186768</ele>
                <time>2013-03-24T03:27:34Z</time>
            </trkpt>
            <trkpt lon="100.956826" lat="12.929781">
                <ele>33.783447</ele>
                <time>2013-03-24T03:27:50Z</time>
            </trkpt>
            <trkpt lon="100.957309" lat="12.932595">
                <ele>29.938110</ele>
                <time>2013-03-24T03:28:49Z</time>
            </trkpt>
            <trkpt lon="100.957797" lat="12.936919">
                <ele>32.822266</ele>
                <time>2013-03-24T03:30:33Z</time>
            </trkpt>
            <trkpt lon="100.957779" lat="12.937282">
                <ele>32.822266</ele>
                <time>2013-03-24T03:30:46Z</time>
            </trkpt>
            <trkpt lon="100.956259" lat="12.937670">
                <ele>35.225464</ele>
                <time>2013-03-24T03:32:00Z</time>
            </trkpt>
            <trkpt lon="100.955709" lat="12.937874">
                <ele>34.744873</ele>
                <time>2013-03-24T03:32:48Z</time>
            </trkpt>
            <trkpt lon="100.955603" lat="12.938066">
                <ele>32.822266</ele>
                <time>2013-03-24T03:33:16Z</time>
            </trkpt>
            <trkpt lon="100.956267" lat="12.943487">
                <ele>42.435425</ele>
                <time>2013-03-24T03:36:19Z</time>
            </trkpt>
            <trkpt lon="100.956408" lat="12.943672">
                <ele>42.916016</ele>
                <time>2013-03-24T03:36:31Z</time>
            </trkpt>
            <trkpt lon="100.957159" lat="12.943908">
                <ele>45.319214</ele>
                <time>2013-03-24T03:36:58Z</time>
            </trkpt>
            <trkpt lon="100.957257" lat="12.943704">
                <ele>44.358032</ele>
                <time>2013-03-24T03:37:27Z</time>
            </trkpt>
            <trkpt lon="100.957617" lat="12.943748">
                <ele>46.761231</ele>
                <time>2013-03-24T03:37:45Z</time>
            </trkpt>
            <trkpt lon="100.958782" lat="12.943876">
                <ele>50.125977</ele>
                <time>2013-03-24T03:38:28Z</time>
            </trkpt>
            <trkpt lon="100.958939" lat="12.942195">
                <ele>58.777710</ele>
                <time>2013-03-24T03:41:01Z</time>
            </trkpt>
            <trkpt lon="100.958662" lat="12.940945">
                <ele>49.164551</ele>
                <time>2013-03-24T03:41:32Z</time>
            </trkpt>
            <trkpt lon="100.958666" lat="12.940912">
                <ele>47.241821</ele>
                <time>2013-03-24T03:41:41Z</time>
            </trkpt>
            <trkpt lon="100.959631" lat="12.940905">
                <ele>46.761231</ele>
                <time>2013-03-24T03:42:14Z</time>
            </trkpt>
            <trkpt lon="100.960014" lat="12.940977">
                <ele>46.280640</ele>
                <time>2013-03-24T03:42:27Z</time>
            </trkpt>
            <trkpt lon="100.960153" lat="12.941142">
                <ele>46.280640</ele>
                <time>2013-03-24T03:42:35Z</time>
            </trkpt>
            <trkpt lon="100.959835" lat="12.942141">
                <ele>48.203369</ele>
                <time>2013-03-24T03:43:13Z</time>
            </trkpt>
            <trkpt lon="100.960022" lat="12.942815">
                <ele>52.529175</ele>
                <time>2013-03-24T03:43:43Z</time>
            </trkpt>
            <trkpt lon="100.960334" lat="12.943135">
                <ele>52.529175</ele>
                <time>2013-03-24T03:44:05Z</time>
            </trkpt>
            <trkpt lon="100.960216" lat="12.943867">
                <ele>54.451782</ele>
                <time>2013-03-24T03:44:33Z</time>
            </trkpt>
            <trkpt lon="100.960635" lat="12.945619">
                <ele>53.009766</ele>
                <time>2013-03-24T03:45:34Z</time>
            </trkpt>
            <trkpt lon="100.959048" lat="12.946428">
                <ele>51.087158</ele>
                <time>2013-03-24T03:46:14Z</time>
            </trkpt>
            <trkpt lon="100.958712" lat="12.946481">
                <ele>50.606567</ele>
                <time>2013-03-24T03:46:23Z</time>
            </trkpt>
            <trkpt lon="100.957828" lat="12.947533">
                <ele>49.164551</ele>
                <time>2013-03-24T03:46:56Z</time>
            </trkpt>
            <trkpt lon="100.957268" lat="12.948332">
                <ele>47.722534</ele>
                <time>2013-03-24T03:47:22Z</time>
            </trkpt>
            <trkpt lon="100.957511" lat="12.949112">
                <ele>47.241821</ele>
                <time>2013-03-24T03:47:47Z</time>
            </trkpt>
            <trkpt lon="100.957395" lat="12.949847">
                <ele>46.761231</ele>
                <time>2013-03-24T03:48:11Z</time>
            </trkpt>
            <trkpt lon="100.957213" lat="12.950401">
                <ele>44.838623</ele>
                <time>2013-03-24T03:48:35Z</time>
            </trkpt>
            <trkpt lon="100.958178" lat="12.950777">
                <ele>42.916016</ele>
                <time>2013-03-24T03:49:41Z</time>
            </trkpt>
            <trkpt lon="100.960260" lat="12.951002">
                <ele>45.799927</ele>
                <time>2013-03-24T03:51:17Z</time>
            </trkpt>
            <trkpt lon="100.960627" lat="12.950832">
                <ele>48.203369</ele>
                <time>2013-03-24T03:51:57Z</time>
            </trkpt>
            <trkpt lon="100.961571" lat="12.950966">
                <ele>51.567871</ele>
                <time>2013-03-24T03:52:56Z</time>
            </trkpt>
            <trkpt lon="100.961668" lat="12.950871">
                <ele>58.777710</ele>
                <time>2013-03-24T03:54:27Z</time>
            </trkpt>
            <trkpt lon="100.961654" lat="12.949941">
                <ele>54.932373</ele>
                <time>2013-03-24T03:55:09Z</time>
            </trkpt>
            <trkpt lon="100.962477" lat="12.949652">
                <ele>58.297119</ele>
                <time>2013-03-24T03:55:46Z</time>
            </trkpt>
            <trkpt lon="100.962726" lat="12.950208">
                <ele>57.816528</ele>
                <time>2013-03-24T03:56:07Z</time>
            </trkpt>
            <trkpt lon="100.963215" lat="12.950493">
                <ele>58.777710</ele>
                <time>2013-03-24T03:56:23Z</time>
            </trkpt>
            <trkpt lon="100.963851" lat="12.950463">
                <ele>60.219727</ele>
                <time>2013-03-24T03:56:40Z</time>
            </trkpt>
            <trkpt lon="100.965524" lat="12.951021">
                <ele>59.258423</ele>
                <time>2013-03-24T03:57:24Z</time>
            </trkpt>
            <trkpt lon="100.966474" lat="12.951125">
                <ele>59.258423</ele>
                <time>2013-03-24T03:57:44Z</time>
            </trkpt>
            <trkpt lon="100.968493" lat="12.951082">
                <ele>54.451782</ele>
                <time>2013-03-24T03:58:24Z</time>
            </trkpt>
            <trkpt lon="100.968534" lat="12.951771">
                <ele>54.451782</ele>
                <time>2013-03-24T03:58:58Z</time>
            </trkpt>
            <trkpt lon="100.969123" lat="12.951869">
                <ele>52.048584</ele>
                <time>2013-03-24T03:59:17Z</time>
            </trkpt>
            <trkpt lon="100.969957" lat="12.951705">
                <ele>50.606567</ele>
                <time>2013-03-24T03:59:38Z</time>
            </trkpt>
            <trkpt lon="100.971611" lat="12.951736">
                <ele>47.722534</ele>
                <time>2013-03-24T04:00:18Z</time>
            </trkpt>
            <trkpt lon="100.971978" lat="12.952067">
                <ele>47.722534</ele>
                <time>2013-03-24T04:00:34Z</time>
            </trkpt>
            <trkpt lon="100.971518" lat="12.953020">
                <ele>53.009766</ele>
                <time>2013-03-24T04:01:04Z</time>
            </trkpt>
            <trkpt lon="100.971457" lat="12.954079">
                <ele>58.777710</ele>
                <time>2013-03-24T04:01:41Z</time>
            </trkpt>
            <trkpt lon="100.971350" lat="12.954798">
                <ele>62.142334</ele>
                <time>2013-03-24T04:01:58Z</time>
            </trkpt>
            <trkpt lon="100.971200" lat="12.955934">
                <ele>65.507080</ele>
                <time>2013-03-24T04:02:34Z</time>
            </trkpt>
            <trkpt lon="100.971324" lat="12.956008">
                <ele>65.026367</ele>
                <time>2013-03-24T04:02:41Z</time>
            </trkpt>
            <trkpt lon="100.973574" lat="12.955000">
                <ele>65.026367</ele>
                <time>2013-03-24T04:04:09Z</time>
            </trkpt>
            <trkpt lon="100.974977" lat="12.954529">
                <ele>58.777710</ele>
                <time>2013-03-24T04:04:36Z</time>
            </trkpt>
            <trkpt lon="100.975654" lat="12.954771">
                <ele>55.413086</ele>
                <time>2013-03-24T04:04:45Z</time>
            </trkpt>
            <trkpt lon="100.977548" lat="12.956755">
                <ele>60.219727</ele>
                <time>2013-03-24T04:05:34Z</time>
            </trkpt>
            <trkpt lon="100.978623" lat="12.955815">
                <ele>51.087158</ele>
                <time>2013-03-24T04:06:05Z</time>
            </trkpt>
            <trkpt lon="100.979498" lat="12.955389">
                <ele>49.164551</ele>
                <time>2013-03-24T04:06:25Z</time>
            </trkpt>
            <trkpt lon="100.979867" lat="12.955068">
                <ele>47.722534</ele>
                <time>2013-03-24T04:06:37Z</time>
            </trkpt>
            <trkpt lon="100.981130" lat="12.954894">
                <ele>49.645264</ele>
                <time>2013-03-24T04:07:04Z</time>
            </trkpt>
            <trkpt lon="100.981459" lat="12.954483">
                <ele>49.645264</ele>
                <time>2013-03-24T04:07:16Z</time>
            </trkpt>
            <trkpt lon="100.981516" lat="12.954235">
                <ele>49.164551</ele>
                <time>2013-03-24T04:07:22Z</time>
            </trkpt>
            <trkpt lon="100.981102" lat="12.953284">
                <ele>52.048584</ele>
                <time>2013-03-24T04:07:53Z</time>
            </trkpt>
            <trkpt lon="100.979749" lat="12.952674">
                <ele>51.087158</ele>
                <time>2013-03-24T04:08:26Z</time>
            </trkpt>
            <trkpt lon="100.979378" lat="12.952353">
                <ele>50.125977</ele>
                <time>2013-03-24T04:08:37Z</time>
            </trkpt>
            <trkpt lon="100.980037" lat="12.951171">
                <ele>52.529175</ele>
                <time>2013-03-24T04:09:09Z</time>
            </trkpt>
            <trkpt lon="100.980141" lat="12.951041">
                <ele>52.048584</ele>
                <time>2013-03-24T04:09:13Z</time>
            </trkpt>
            <trkpt lon="100.980820" lat="12.950284">
                <ele>54.451782</ele>
                <time>2013-03-24T04:09:42Z</time>
            </trkpt>
            <trkpt lon="100.981205" lat="12.950950">
                <ele>56.374512</ele>
                <time>2013-03-24T04:10:07Z</time>
            </trkpt>
            <trkpt lon="100.981559" lat="12.951693">
                <ele>57.335815</ele>
                <time>2013-03-24T04:10:28Z</time>
            </trkpt>
            <trkpt lon="100.982164" lat="12.952114">
                <ele>58.777710</ele>
                <time>2013-03-24T04:10:57Z</time>
            </trkpt>
            <trkpt lon="100.982349" lat="12.952185">
                <ele>52.048584</ele>
                <time>2013-03-24T04:20:44Z</time>
            </trkpt>
            <trkpt lon="100.982756" lat="12.951907">
                <ele>53.971191</ele>
                <time>2013-03-24T04:21:01Z</time>
            </trkpt>
            <trkpt lon="100.984384" lat="12.950315">
                <ele>64.065063</ele>
                <time>2013-03-24T04:22:14Z</time>
            </trkpt>
            <trkpt lon="100.984758" lat="12.949250">
                <ele>68.871582</ele>
                <time>2013-03-24T04:23:02Z</time>
            </trkpt>
            <trkpt lon="100.985107" lat="12.948579">
                <ele>70.794190</ele>
                <time>2013-03-24T04:23:22Z</time>
            </trkpt>
            <trkpt lon="100.985866" lat="12.947042">
                <ele>68.390869</ele>
                <time>2013-03-24T04:24:00Z</time>
            </trkpt>
            <trkpt lon="100.987260" lat="12.946073">
                <ele>65.026367</ele>
                <time>2013-03-24T04:24:24Z</time>
            </trkpt>
            <trkpt lon="100.988062" lat="12.944811">
                <ele>63.103638</ele>
                <time>2013-03-24T04:24:49Z</time>
            </trkpt>
            <trkpt lon="100.989816" lat="12.944417">
                <ele>63.584351</ele>
                <time>2013-03-24T04:25:26Z</time>
            </trkpt>
            <trkpt lon="100.990041" lat="12.944240">
                <ele>64.545654</ele>
                <time>2013-03-24T04:25:33Z</time>
            </trkpt>
            <trkpt lon="100.990225" lat="12.943720">
                <ele>65.026367</ele>
                <time>2013-03-24T04:25:47Z</time>
            </trkpt>
            <trkpt lon="100.990077" lat="12.942917">
                <ele>60.700317</ele>
                <time>2013-03-24T04:26:02Z</time>
            </trkpt>
            <trkpt lon="100.989747" lat="12.942027">
                <ele>59.739136</ele>
                <time>2013-03-24T04:26:18Z</time>
            </trkpt>
            <trkpt lon="100.989330" lat="12.941498">
                <ele>61.661743</ele>
                <time>2013-03-24T04:26:33Z</time>
            </trkpt>
            <trkpt lon="100.989264" lat="12.940771">
                <ele>65.507080</ele>
                <time>2013-03-24T04:26:52Z</time>
            </trkpt>
            <trkpt lon="100.991589" lat="12.939507">
                <ele>68.390869</ele>
                <time>2013-03-24T04:28:20Z</time>
            </trkpt>
            <trkpt lon="100.990888" lat="12.939894">
                <ele>68.390869</ele>
                <time>2013-03-24T04:29:23Z</time>
            </trkpt>
            <trkpt lon="100.990231" lat="12.940273">
                <ele>62.142334</ele>
                <time>2013-03-24T04:36:32Z</time>
            </trkpt>
            <trkpt lon="100.991922" lat="12.939257">
                <ele>66.468262</ele>
                <time>2013-03-24T04:37:27Z</time>
            </trkpt>
            <trkpt lon="100.992301" lat="12.938892">
                <ele>66.468262</ele>
                <time>2013-03-24T04:37:43Z</time>
            </trkpt>
            <trkpt lon="100.993472" lat="12.937371">
                <ele>71.274902</ele>
                <time>2013-03-24T04:39:13Z</time>
            </trkpt>
            <trkpt lon="100.993134" lat="12.936606">
                <ele>77.042847</ele>
                <time>2013-03-24T04:40:20Z</time>
            </trkpt>
            <trkpt lon="100.993744" lat="12.936409">
                <ele>78.965454</ele>
                <time>2013-03-24T04:40:46Z</time>
            </trkpt>
            <trkpt lon="100.994314" lat="12.936571">
                <ele>79.926636</ele>
                <time>2013-03-24T04:41:15Z</time>
            </trkpt>
            <trkpt lon="100.994766" lat="12.936150">
                <ele>88.098022</ele>
                <time>2013-03-24T04:42:21Z</time>
            </trkpt>
            <trkpt lon="100.995587" lat="12.935920">
                <ele>82.330078</ele>
                <time>2013-03-24T04:43:25Z</time>
            </trkpt>
            <trkpt lon="100.995915" lat="12.935623">
                <ele>79.926636</ele>
                <time>2013-03-24T04:43:48Z</time>
            </trkpt>
            <trkpt lon="100.996467" lat="12.935063">
                <ele>78.484741</ele>
                <time>2013-03-24T04:44:26Z</time>
            </trkpt>
            <trkpt lon="100.996651" lat="12.934541">
                <ele>82.810791</ele>
                <time>2013-03-24T04:44:57Z</time>
            </trkpt>
            <trkpt lon="100.996860" lat="12.934267">
                <ele>81.849365</ele>
                <time>2013-03-24T04:45:36Z</time>
            </trkpt>
            <trkpt lon="100.997386" lat="12.933947">
                <ele>84.733398</ele>
                <time>2013-03-24T04:46:38Z</time>
            </trkpt>
            <trkpt lon="100.997684" lat="12.932685">
                <ele>87.617188</ele>
                <time>2013-03-24T04:47:40Z</time>
            </trkpt>
            <trkpt lon="100.998558" lat="12.932492">
                <ele>91.462524</ele>
                <time>2013-03-24T04:48:13Z</time>
            </trkpt>
            <trkpt lon="100.999092" lat="12.932606">
                <ele>92.904541</ele>
                <time>2013-03-24T04:48:31Z</time>
            </trkpt>
            <trkpt lon="100.999660" lat="12.932522">
                <ele>94.346558</ele>
                <time>2013-03-24T04:48:50Z</time>
            </trkpt>
            <trkpt lon="101.001423" lat="12.929797">
                <ele>105.882446</ele>
                <time>2013-03-24T04:51:10Z</time>
            </trkpt>
            <trkpt lon="101.001915" lat="12.929062">
                <ele>104.440430</ele>
                <time>2013-03-24T04:51:37Z</time>
            </trkpt>
            <trkpt lon="101.001757" lat="12.928147">
                <ele>100.114502</ele>
                <time>2013-03-24T04:52:06Z</time>
            </trkpt>
            <trkpt lon="101.001383" lat="12.927857">
                <ele>101.075684</ele>
                <time>2013-03-24T04:52:21Z</time>
            </trkpt>
            <trkpt lon="101.000888" lat="12.928029">
                <ele>101.075684</ele>
                <time>2013-03-24T04:52:35Z</time>
            </trkpt>
            <trkpt lon="100.999792" lat="12.928804">
                <ele>95.307739</ele>
                <time>2013-03-24T04:53:09Z</time>
            </trkpt>
            <trkpt lon="100.998818" lat="12.929875">
                <ele>91.943237</ele>
                <time>2013-03-24T04:53:59Z</time>
            </trkpt>
            <trkpt lon="100.997993" lat="12.930210">
                <ele>90.020630</ele>
                <time>2013-03-24T04:54:27Z</time>
            </trkpt>
            <trkpt lon="100.998146" lat="12.930953">
                <ele>94.346558</ele>
                <time>2013-03-24T04:55:01Z</time>
            </trkpt>
            <trkpt lon="100.997343" lat="12.931341">
                <ele>88.578735</ele>
                <time>2013-03-24T04:55:36Z</time>
            </trkpt>
            <trkpt lon="100.997110" lat="12.931532">
                <ele>85.213989</ele>
                <time>2013-03-24T04:56:20Z</time>
            </trkpt>
            <trkpt lon="100.995514" lat="12.932184">
                <ele>78.484741</ele>
                <time>2013-03-24T04:57:16Z</time>
            </trkpt>
            <trkpt lon="100.995912" lat="12.932723">
                <ele>80.407471</ele>
                <time>2013-03-24T04:57:40Z</time>
            </trkpt>
            <trkpt lon="100.995853" lat="12.933067">
                <ele>79.446045</ele>
                <time>2013-03-24T04:57:53Z</time>
            </trkpt>
            <trkpt lon="100.994497" lat="12.934072">
                <ele>77.042847</ele>
                <time>2013-03-24T04:58:30Z</time>
            </trkpt>
            <trkpt lon="100.993718" lat="12.934412">
                <ele>75.120239</ele>
                <time>2013-03-24T04:58:47Z</time>
            </trkpt>
            <trkpt lon="100.992769" lat="12.934683">
                <ele>71.755493</ele>
                <time>2013-03-24T04:59:05Z</time>
            </trkpt>
            <trkpt lon="100.990829" lat="12.934703">
                <ele>65.987671</ele>
                <time>2013-03-24T04:59:39Z</time>
            </trkpt>
            <trkpt lon="100.989904" lat="12.934849">
                <ele>63.584351</ele>
                <time>2013-03-24T04:59:56Z</time>
            </trkpt>
            <trkpt lon="100.986374" lat="12.935813">
                <ele>59.258423</ele>
                <time>2013-03-24T05:01:09Z</time>
            </trkpt>
            <trkpt lon="100.984981" lat="12.936326">
                <ele>57.335815</ele>
                <time>2013-03-24T05:01:41Z</time>
            </trkpt>
            <trkpt lon="100.984424" lat="12.936304">
                <ele>56.855103</ele>
                <time>2013-03-24T05:01:54Z</time>
            </trkpt>
            <trkpt lon="100.984916" lat="12.934825">
                <ele>59.739136</ele>
                <time>2013-03-24T05:02:40Z</time>
            </trkpt>
            <trkpt lon="100.984944" lat="12.933879">
                <ele>56.374512</ele>
                <time>2013-03-24T05:03:07Z</time>
            </trkpt>
            <trkpt lon="100.985364" lat="12.933531">
                <ele>56.374512</ele>
                <time>2013-03-24T05:03:51Z</time>
            </trkpt>
            <trkpt lon="100.985177" lat="12.933327">
                <ele>60.700317</ele>
                <time>2013-03-24T05:04:57Z</time>
            </trkpt>
            <trkpt lon="100.984905" lat="12.933426">
                <ele>61.661743</ele>
                <time>2013-03-24T05:05:19Z</time>
            </trkpt>
            <trkpt lon="100.984535" lat="12.933578">
                <ele>60.700317</ele>
                <time>2013-03-24T05:05:46Z</time>
            </trkpt>
            <trkpt lon="100.984435" lat="12.933478">
                <ele>59.739136</ele>
                <time>2013-03-24T05:06:05Z</time>
            </trkpt>
            <trkpt lon="100.984060" lat="12.932586">
                <ele>59.739136</ele>
                <time>2013-03-24T05:06:50Z</time>
            </trkpt>
            <trkpt lon="100.985031" lat="12.931732">
                <ele>62.622925</ele>
                <time>2013-03-24T05:07:30Z</time>
            </trkpt>
            <trkpt lon="100.986368" lat="12.931055">
                <ele>62.622925</ele>
                <time>2013-03-24T05:08:09Z</time>
            </trkpt>
            <trkpt lon="100.986093" lat="12.930047">
                <ele>63.584351</ele>
                <time>2013-03-24T05:08:34Z</time>
            </trkpt>
            <trkpt lon="100.985899" lat="12.929365">
                <ele>61.181030</ele>
                <time>2013-03-24T05:08:54Z</time>
            </trkpt>
            <trkpt lon="100.986253" lat="12.928353">
                <ele>69.832886</ele>
                <time>2013-03-24T05:09:32Z</time>
            </trkpt>
            <trkpt lon="100.986571" lat="12.928116">
                <ele>71.274902</ele>
                <time>2013-03-24T05:09:46Z</time>
            </trkpt>
            <trkpt lon="100.986890" lat="12.927733">
                <ele>72.236206</ele>
                <time>2013-03-24T05:10:02Z</time>
            </trkpt>
            <trkpt lon="100.987581" lat="12.926237">
                <ele>72.236206</ele>
                <time>2013-03-24T05:10:53Z</time>
            </trkpt>
            <trkpt lon="100.987632" lat="12.925641">
                <ele>74.158813</ele>
                <time>2013-03-24T05:11:12Z</time>
            </trkpt>
            <trkpt lon="100.986466" lat="12.925047">
                <ele>70.313477</ele>
                <time>2013-03-24T05:11:47Z</time>
            </trkpt>
            <trkpt lon="100.985483" lat="12.924868">
                <ele>68.390869</ele>
                <time>2013-03-24T05:12:08Z</time>
            </trkpt>
            <trkpt lon="100.983335" lat="12.925313">
                <ele>65.507080</ele>
                <time>2013-03-24T05:12:50Z</time>
            </trkpt>
            <trkpt lon="100.982932" lat="12.925287">
                <ele>64.545654</ele>
                <time>2013-03-24T05:12:58Z</time>
            </trkpt>
            <trkpt lon="100.982241" lat="12.924755">
                <ele>64.065063</ele>
                <time>2013-03-24T05:13:21Z</time>
            </trkpt>
            <trkpt lon="100.981775" lat="12.923735">
                <ele>64.545654</ele>
                <time>2013-03-24T05:14:01Z</time>
            </trkpt>
            <trkpt lon="100.981762" lat="12.923260">
                <ele>65.026367</ele>
                <time>2013-03-24T05:14:20Z</time>
            </trkpt>
            <trkpt lon="100.982215" lat="12.922090">
                <ele>68.390869</ele>
                <time>2013-03-24T05:15:22Z</time>
            </trkpt>
            <trkpt lon="100.982218" lat="12.922073">
                <ele>68.390869</ele>
                <time>2013-03-24T05:15:23Z</time>
            </trkpt>
            <trkpt lon="100.980526" lat="12.919185">
                <ele>72.236206</ele>
                <time>2013-03-24T05:16:48Z</time>
            </trkpt>
            <trkpt lon="100.980022" lat="12.918342">
                <ele>72.236206</ele>
                <time>2013-03-24T05:17:10Z</time>
            </trkpt>
            <trkpt lon="100.979435" lat="12.917572">
                <ele>71.755493</ele>
                <time>2013-03-24T05:17:30Z</time>
            </trkpt>
            <trkpt lon="100.978728" lat="12.917236">
                <ele>70.313477</ele>
                <time>2013-03-24T05:17:45Z</time>
            </trkpt>
            <trkpt lon="100.976056" lat="12.917541">
                <ele>66.468262</ele>
                <time>2013-03-24T05:18:30Z</time>
            </trkpt>
            <trkpt lon="100.971081" lat="12.918354">
                <ele>56.855103</ele>
                <time>2013-03-24T05:19:55Z</time>
            </trkpt>
            <trkpt lon="100.969015" lat="12.918707">
                <ele>50.125977</ele>
                <time>2013-03-24T05:20:30Z</time>
            </trkpt>
            <trkpt lon="100.968884" lat="12.918628">
                <ele>49.645264</ele>
                <time>2013-03-24T05:20:35Z</time>
            </trkpt>
            <trkpt lon="100.968737" lat="12.918039">
                <ele>50.125977</ele>
                <time>2013-03-24T05:20:51Z</time>
            </trkpt>
            <trkpt lon="100.969425" lat="12.916007">
                <ele>51.087158</ele>
                <time>2013-03-24T05:21:37Z</time>
            </trkpt>
            <trkpt lon="100.969889" lat="12.915669">
                <ele>51.567871</ele>
                <time>2013-03-24T05:21:50Z</time>
            </trkpt>
            <trkpt lon="100.970773" lat="12.915470">
                <ele>52.048584</ele>
                <time>2013-03-24T05:22:11Z</time>
            </trkpt>
            <trkpt lon="100.971359" lat="12.915319">
                <ele>51.567871</ele>
                <time>2013-03-24T05:22:25Z</time>
            </trkpt>
            <trkpt lon="100.973082" lat="12.913707">
                <ele>56.855103</ele>
                <time>2013-03-24T05:23:19Z</time>
            </trkpt>
            <trkpt lon="100.973574" lat="12.913365">
                <ele>56.374512</ele>
                <time>2013-03-24T05:23:32Z</time>
            </trkpt>
            <trkpt lon="100.974270" lat="12.912448">
                <ele>59.739136</ele>
                <time>2013-03-24T05:23:57Z</time>
            </trkpt>
            <trkpt lon="100.974772" lat="12.912160">
                <ele>59.739136</ele>
                <time>2013-03-24T05:24:12Z</time>
            </trkpt>
            <trkpt lon="100.976035" lat="12.911795">
                <ele>58.297119</ele>
                <time>2013-03-24T05:24:43Z</time>
            </trkpt>
            <trkpt lon="100.975778" lat="12.910679">
                <ele>59.258423</ele>
                <time>2013-03-24T05:25:13Z</time>
            </trkpt>
            <trkpt lon="100.975397" lat="12.910338">
                <ele>60.700317</ele>
                <time>2013-03-24T05:25:26Z</time>
            </trkpt>
            <trkpt lon="100.975007" lat="12.909993">
                <ele>61.181030</ele>
                <time>2013-03-24T05:25:44Z</time>
            </trkpt>
            <trkpt lon="100.974501" lat="12.909118">
                <ele>62.622925</ele>
                <time>2013-03-24T05:26:19Z</time>
            </trkpt>
            <trkpt lon="100.974771" lat="12.908269">
                <ele>73.197632</ele>
                <time>2013-03-24T05:26:55Z</time>
            </trkpt>
            <trkpt lon="100.975082" lat="12.907167">
                <ele>74.639526</ele>
                <time>2013-03-24T05:27:39Z</time>
            </trkpt>
            <trkpt lon="100.974847" lat="12.906961">
                <ele>76.081421</ele>
                <time>2013-03-24T05:28:00Z</time>
            </trkpt>
            <trkpt lon="100.974561" lat="12.906648">
                <ele>74.158813</ele>
                <time>2013-03-24T05:28:14Z</time>
            </trkpt>
            <trkpt lon="100.974412" lat="12.906251">
                <ele>75.120239</ele>
                <time>2013-03-24T05:28:28Z</time>
            </trkpt>
            <trkpt lon="100.974633" lat="12.905976">
                <ele>78.965454</ele>
                <time>2013-03-24T05:29:16Z</time>
            </trkpt>
        </trkseg>
    </trk>
</gpx>